Time;durP1;ratioP1;P1;durP2;ratioP2;P2;SDS_P1;SDS_P2;PMS_P1;PMS_P2;Temp;Humidity;BMP_temperature;BMP_pressure;BME280_temperature;BME280_humidity;BME280_pressure;Samples;Min_cycle;Max_cycle;Signal;HPM_P1;HPM_P2
2023/05/21 00:00:21;;;;;;;15.27;7.73;;;;;;;;;;5012205;28;20295;-78
2023/05/21 00:02:50;;;;;;;13.77;7.97;;;;;;;;;;5012583;28;20675;-78
2023/05/21 00:05:17;;;;;;;14.50;7.73;;;;;;;;;;5013461;28;20555;-78
2023/05/21 00:07:45;;;;;;;14.47;8.10;;;;;;;;;;5031223;28;20200;-78
2023/05/21 00:10:13;;;;;;;16.23;8.10;;;;;;;;;;5031681;28;20196;-78
2023/05/21 00:12:40;;;;;;;11.30;8.03;;;;;;;;;;5031904;28;20242;-78
2023/05/21 00:15:08;;;;;;;12.00;7.83;;;;;;;;;;5045247;28;20227;-78
2023/05/21 00:17:35;;;;;;;17.27;8.13;;;;;;;;;;5051393;28;20324;-78
2023/05/21 00:20:06;;;;;;;14.23;8.60;;;;;;;;;;5051345;28;20205;-78
2023/05/21 00:22:35;;;;;;;12.20;7.87;;;;;;;;;;5051135;28;20206;-78
2023/05/21 00:25:02;;;;;;;17.33;8.17;;;;;;;;;;5051297;28;20200;-78
2023/05/21 00:27:29;;;;;;;16.97;8.70;;;;;;;;;;5051594;28;20302;-78
2023/05/21 00:29:56;;;;;;;14.83;8.40;;;;;;;;;;5051561;28;20247;-77
2023/05/21 00:32:23;;;;;;;12.77;8.63;;;;;;;;;;5051404;28;20222;-77
2023/05/21 00:34:50;;;;;;;16.30;8.70;;;;;;;;;;5051300;28;20291;-78
2023/05/21 00:37:19;;;;;;;16.53;8.10;;;;;;;;;;5050668;28;20308;-78
2023/05/21 00:39:46;;;;;;;16.93;8.93;;;;;;;;;;5051418;28;20200;-78
2023/05/21 00:42:16;;;;;;;15.27;8.53;;;;;;;;;;5051414;28;20292;-78
2023/05/21 00:44:44;;;;;;;15.13;8.60;;;;;;;;;;5050842;28;20241;-78
2023/05/21 00:47:12;;;;;;;14.70;8.47;;;;;;;;;;5050912;28;20199;-78
2023/05/21 00:49:39;;;;;;;14.03;9.60;;;;;;;;;;5051669;28;20294;-78
2023/05/21 00:52:07;;;;;;;15.87;8.20;;;;;;;;;;5050841;28;20646;-78
2023/05/21 00:54:36;;;;;;;17.60;8.63;;;;;;;;;;5050953;28;20226;-78
2023/05/21 00:57:04;;;;;;;13.03;8.40;;;;;;;;;;5051050;28;20711;-78
2023/05/21 00:59:31;;;;;;;15.97;9.17;;;;;;;;;;5051430;28;20205;-78
2023/05/21 01:02:03;;;;;;;18.03;9.47;;;;;;;;;;5030942;28;20295;-79
2023/05/21 01:04:31;;;;;;;17.60;9.10;;;;;;;;;;5031291;28;20207;-78
2023/05/21 01:06:58;;;;;;;16.63;8.27;;;;;;;;;;5030400;28;20204;-78
2023/05/21 01:09:25;;;;;;;14.63;8.53;;;;;;;;;;5031486;28;20212;-78
2023/05/21 01:11:55;;;;;;;16.13;8.73;;;;;;;;;;5031241;28;20220;-78
2023/05/21 01:14:23;;;;;;;18.07;9.20;;;;;;;;;;5038569;28;20273;-77
2023/05/21 01:16:50;;;;;;;19.00;9.07;;;;;;;;;;5051091;28;20315;-78
2023/05/21 01:19:19;;;;;;;14.73;8.20;;;;;;;;;;5050978;28;20614;-78
2023/05/21 01:21:46;;;;;;;14.93;8.83;;;;;;;;;;5050397;28;20224;-78
2023/05/21 01:24:15;;;;;;;15.13;8.63;;;;;;;;;;5050653;28;20200;-79
2023/05/21 01:26:45;;;;;;;14.37;9.03;;;;;;;;;;5051411;28;20231;-78
2023/05/21 01:29:13;;;;;;;13.17;8.63;;;;;;;;;;5050874;28;20250;-78
2023/05/21 01:31:49;;;;;;;13.20;8.80;;;;;;;;;;5050890;28;20257;-78
2023/05/21 01:34:17;;;;;;;16.43;9.10;;;;;;;;;;5050016;28;20329;-78
2023/05/21 01:36:47;;;;;;;15.67;9.03;;;;;;;;;;5050482;28;20318;-78
2023/05/21 01:39:18;;;;;;;15.63;8.87;;;;;;;;;;5051263;28;20557;-78
2023/05/21 01:41:46;;;;;;;16.27;8.93;;;;;;;;;;5050589;28;20199;-78
2023/05/21 01:44:13;;;;;;;15.83;9.47;;;;;;;;;;5050248;28;20634;-77
2023/05/21 01:46:41;;;;;;;20.80;9.43;;;;;;;;;;5050847;28;20307;-77
2023/05/21 01:49:08;;;;;;;16.73;9.50;;;;;;;;;;5050452;28;20242;-78
2023/05/21 01:51:35;;;;;;;17.33;8.70;;;;;;;;;;5050152;28;20629;-78
2023/05/21 01:54:03;;;;;;;15.97;8.63;;;;;;;;;;5050709;28;20201;-78
2023/05/21 01:56:32;;;;;;;15.50;9.10;;;;;;;;;;5050555;28;20234;-77
2023/05/21 01:59:00;;;;;;;16.53;9.03;;;;;;;;;;5051050;28;20209;-78
2023/05/21 02:01:28;;;;;;;18.60;8.30;;;;;;;;;;5054155;28;20235;-78
2023/05/21 02:03:56;;;;;;;16.70;8.80;;;;;;;;;;5045864;28;20210;-77
2023/05/21 02:06:23;;;;;;;15.10;9.07;;;;;;;;;;5024411;28;20709;-78
2023/05/21 02:08:51;;;;;;;18.23;8.93;;;;;;;;;;5014429;28;20246;-78
2023/05/21 02:11:18;;;;;;;15.33;9.10;;;;;;;;;;5014099;28;20293;-77
2023/05/21 02:13:47;;;;;;;17.33;9.27;;;;;;;;;;5018761;28;20300;-78
2023/05/21 02:16:14;;;;;;;16.90;8.90;;;;;;;;;;5053977;28;20204;-78
2023/05/21 02:18:42;;;;;;;15.83;9.13;;;;;;;;;;5053178;28;20295;-77
2023/05/21 02:21:10;;;;;;;20.30;9.40;;;;;;;;;;5053630;28;20227;-78
2023/05/21 02:23:37;;;;;;;12.63;8.70;;;;;;;;;;5053742;28;20307;-77
2023/05/21 02:26:04;;;;;;;18.10;8.77;;;;;;;;;;5054022;28;20235;-77
2023/05/21 02:28:32;;;;;;;12.77;8.33;;;;;;;;;;5053774;28;20283;-78
2023/05/21 02:31:01;;;;;;;17.03;8.50;;;;;;;;;;5053448;28;20198;-77
2023/05/21 02:33:28;;;;;;;16.43;8.90;;;;;;;;;;5053052;28;20348;-78
2023/05/21 02:35:56;;;;;;;16.57;8.47;;;;;;;;;;5053526;28;20204;-78
2023/05/21 02:38:24;;;;;;;13.77;8.40;;;;;;;;;;5053482;28;20314;-76
2023/05/21 02:40:51;;;;;;;14.07;8.00;;;;;;;;;;5053564;28;20908;-77
2023/05/21 02:43:19;;;;;;;17.90;8.50;;;;;;;;;;5053779;28;20261;-77
2023/05/21 02:45:47;;;;;;;16.63;8.43;;;;;;;;;;5053679;28;20232;-76
2023/05/21 02:48:16;;;;;;;14.10;8.53;;;;;;;;;;5052790;28;20199;-78
2023/05/21 02:50:43;;;;;;;15.90;8.00;;;;;;;;;;5053231;28;20299;-78
2023/05/21 02:53:10;;;;;;;17.43;8.83;;;;;;;;;;5053227;28;20284;-78
2023/05/21 02:55:37;;;;;;;15.07;7.80;;;;;;;;;;5053049;28;20297;-78
2023/05/21 02:58:05;;;;;;;14.53;8.10;;;;;;;;;;5053198;28;20324;-77
2023/05/21 03:00:32;;;;;;;17.63;7.90;;;;;;;;;;5053429;28;20289;-78
2023/05/21 03:03:00;;;;;;;15.37;8.00;;;;;;;;;;5052757;28;20282;-78
2023/05/21 03:05:28;;;;;;;15.97;7.90;;;;;;;;;;5052978;28;20192;-77
2023/05/21 03:07:55;;;;;;;16.13;7.53;;;;;;;;;;5052846;28;20286;-77
2023/05/21 03:10:22;;;;;;;16.37;7.57;;;;;;;;;;5052859;28;20197;-77
2023/05/21 03:12:49;;;;;;;13.93;7.90;;;;;;;;;;5052971;28;20288;-78
2023/05/21 03:15:22;;;;;;;12.37;7.13;;;;;;;;;;5053042;28;20298;-77
2023/05/21 03:17:49;;;;;;;15.07;8.07;;;;;;;;;;5053015;28;20231;-78
2023/05/21 03:20:17;;;;;;;14.93;7.57;;;;;;;;;;5052784;28;20199;-78
2023/05/21 03:22:47;;;;;;;18.67;7.43;;;;;;;;;;5052387;28;20195;-78
2023/05/21 03:25:14;;;;;;;13.00;7.23;;;;;;;;;;5043361;28;20232;-77
2023/05/21 03:27:41;;;;;;;16.33;7.33;;;;;;;;;;5032347;28;20200;-78
2023/05/21 03:30:09;;;;;;;18.63;7.53;;;;;;;;;;5032267;28;20291;-78
2023/05/21 03:32:37;;;;;;;17.17;7.23;;;;;;;;;;5032264;28;20276;-77
2023/05/21 03:35:05;;;;;;;16.40;7.30;;;;;;;;;;5032464;28;20204;-77
2023/05/21 03:37:32;;;;;;;15.23;7.40;;;;;;;;;;5032383;28;20228;-78
2023/05/21 03:40:01;;;;;;;17.37;7.90;;;;;;;;;;5032409;28;20310;-78
2023/05/21 03:42:28;;;;;;;14.93;7.93;;;;;;;;;;5032459;28;20662;-77
2023/05/21 03:44:55;;;;;;;14.00;7.30;;;;;;;;;;5031904;28;20199;-78
2023/05/21 03:47:22;;;;;;;14.17;7.50;;;;;;;;;;5032134;28;20235;-78
2023/05/21 03:49:49;;;;;;;15.13;7.13;;;;;;;;;;5032792;28;20239;-77
2023/05/21 03:52:16;;;;;;;12.60;6.33;;;;;;;;;;5031844;28;20284;-77
2023/05/21 03:54:44;;;;;;;15.57;7.70;;;;;;;;;;5031959;28;20230;-77
2023/05/21 03:57:12;;;;;;;18.37;7.40;;;;;;;;;;5031921;28;20747;-78
2023/05/21 03:59:39;;;;;;;13.80;6.97;;;;;;;;;;5031322;28;20241;-78
2023/05/21 04:02:06;;;;;;;14.57;7.43;;;;;;;;;;5031956;28;20213;-78
2023/05/21 04:04:34;;;;;;;20.67;7.73;;;;;;;;;;5032095;28;20198;-79
2023/05/21 04:07:03;;;;;;;16.90;7.90;;;;;;;;;;5032121;28;20221;-78
2023/05/21 04:09:30;;;;;;;19.40;7.53;;;;;;;;;;5031909;28;20205;-77
2023/05/21 04:11:57;;;;;;;15.40;7.00;;;;;;;;;;5031429;28;20247;-77
2023/05/21 04:14:26;;;;;;;16.80;7.73;;;;;;;;;;5031394;28;20200;-78
2023/05/21 04:16:53;;;;;;;13.70;6.77;;;;;;;;;;5031825;28;20283;-78
2023/05/21 04:19:20;;;;;;;14.67;7.60;;;;;;;;;;5031590;28;20198;-78
2023/05/21 04:21:47;;;;;;;17.13;7.70;;;;;;;;;;5031365;28;20201;-77
2023/05/21 04:24:15;;;;;;;23.07;8.20;;;;;;;;;;5031650;28;20203;-78
2023/05/21 04:26:43;;;;;;;19.17;7.77;;;;;;;;;;5031728;28;20267;-78
2023/05/21 04:29:10;;;;;;;17.47;7.63;;;;;;;;;;5030853;28;20572;-78
2023/05/21 04:31:39;;;;;;;15.37;8.07;;;;;;;;;;5031552;28;20283;-78
2023/05/21 04:34:06;;;;;;;16.73;7.60;;;;;;;;;;5031473;28;20322;-77
2023/05/21 04:36:33;;;;;;;19.90;7.53;;;;;;;;;;5031939;28;20712;-78
2023/05/21 04:39:00;;;;;;;21.20;7.53;;;;;;;;;;5031096;28;20237;-78
2023/05/21 04:41:27;;;;;;;14.83;7.50;;;;;;;;;;5031307;28;20756;-77
2023/05/21 04:43:55;;;;;;;18.77;7.63;;;;;;;;;;5030729;28;20903;-77
2023/05/21 04:46:23;;;;;;;19.60;7.70;;;;;;;;;;5031189;28;20300;-78
2023/05/21 04:48:53;;;;;;;16.07;7.33;;;;;;;;;;5031490;28;20229;-79
2023/05/21 04:51:23;;;;;;;17.23;7.90;;;;;;;;;;5031271;28;20204;-79
2023/05/21 04:53:50;;;;;;;16.30;7.60;;;;;;;;;;5031729;28;20583;-80
2023/05/21 04:56:18;;;;;;;21.70;8.53;;;;;;;;;;5031236;28;20279;-79
2023/05/21 04:58:46;;;;;;;17.50;8.13;;;;;;;;;;5030472;28;20722;-80
2023/05/21 05:01:14;;;;;;;17.30;8.33;;;;;;;;;;5031263;28;20593;-79
2023/05/21 05:03:41;;;;;;;16.83;7.80;;;;;;;;;;5030247;28;20245;-78
2023/05/21 05:06:09;;;;;;;21.63;8.30;;;;;;;;;;5027080;28;20293;-79
2023/05/21 05:08:37;;;;;;;19.63;8.47;;;;;;;;;;5030865;28;20663;-79
2023/05/21 05:11:04;;;;;;;18.63;8.37;;;;;;;;;;5027814;28;20646;-80
2023/05/21 05:13:31;;;;;;;16.73;8.17;;;;;;;;;;5019754;28;20208;-78
2023/05/21 05:15:59;;;;;;;16.90;8.13;;;;;;;;;;5050379;28;20675;-78
2023/05/21 05:18:26;;;;;;;17.80;8.87;;;;;;;;;;5051198;28;20263;-78
2023/05/21 05:20:53;;;;;;;21.87;9.43;;;;;;;;;;5050608;28;20237;-78
2023/05/21 05:23:22;;;;;;;17.10;9.30;;;;;;;;;;5050903;28;20290;-78
2023/05/21 05:25:49;;;;;;;22.10;9.73;;;;;;;;;;5050763;28;20768;-79
2023/05/21 05:28:16;;;;;;;21.67;9.90;;;;;;;;;;5050535;28;20696;-78
2023/05/21 05:30:43;;;;;;;20.50;10.27;;;;;;;;;;5050881;28;20199;-78
2023/05/21 05:33:11;;;;;;;18.13;10.17;;;;;;;;;;5032756;28;20319;-79
2023/05/21 05:35:38;;;;;;;18.77;10.60;;;;;;;;;;5033609;28;20223;-79
2023/05/21 05:38:07;;;;;;;19.67;11.03;;;;;;;;;;5034536;28;20720;-78
2023/05/21 05:40:36;;;;;;;19.90;11.40;;;;;;;;;;5034405;28;20196;-78
2023/05/21 05:43:03;;;;;;;18.47;12.03;;;;;;;;;;5034532;28;20291;-79
2023/05/21 05:45:30;;;;;;;21.93;12.40;;;;;;;;;;5034500;28;20224;-79
2023/05/21 05:47:57;;;;;;;20.47;12.07;;;;;;;;;;5034294;28;20647;-79
2023/05/21 05:50:25;;;;;;;23.83;12.70;;;;;;;;;;5034262;28;20224;-79
2023/05/21 05:52:52;;;;;;;23.00;12.93;;;;;;;;;;5034665;28;20196;-78
2023/05/21 05:55:20;;;;;;;24.30;13.07;;;;;;;;;;5033941;28;20201;-80
2023/05/21 05:57:49;;;;;;;23.90;12.93;;;;;;;;;;5034201;28;20716;-79
2023/05/21 06:00:17;;;;;;;27.50;13.83;;;;;;;;;;5034366;28;20280;-78
2023/05/21 06:02:44;;;;;;;21.53;12.73;;;;;;;;;;5017134;28;20684;-79
2023/05/21 06:05:12;;;;;;;19.57;13.37;;;;;;;;;;5014312;28;20332;-79
2023/05/21 06:07:39;;;;;;;22.07;13.43;;;;;;;;;;5014685;28;20284;-78
2023/05/21 06:10:07;;;;;;;22.67;14.13;;;;;;;;;;5015345;28;20284;-79
2023/05/21 06:12:34;;;;;;;21.43;12.83;;;;;;;;;;5030747;28;20726;-79
2023/05/21 06:15:02;;;;;;;18.50;12.33;;;;;;;;;;5039430;28;20231;-76
2023/05/21 06:17:30;;;;;;;21.07;12.47;;;;;;;;;;5053414;28;20231;-79
2023/05/21 06:19:57;;;;;;;20.13;13.20;;;;;;;;;;5054083;28;20196;-78
2023/05/21 06:22:25;;;;;;;18.33;13.13;;;;;;;;;;5054019;28;20196;-80
2023/05/21 06:24:52;;;;;;;21.40;13.43;;;;;;;;;;5052834;28;20206;-79
2023/05/21 06:27:19;;;;;;;18.27;12.67;;;;;;;;;;5043574;28;20315;-78
2023/05/21 06:29:46;;;;;;;20.43;13.50;;;;;;;;;;5013921;28;20212;-79
2023/05/21 06:32:15;;;;;;;19.23;13.23;;;;;;;;;;5013691;28;20293;-78
2023/05/21 06:34:42;;;;;;;17.03;12.67;;;;;;;;;;5025152;28;20319;-79
2023/05/21 06:37:09;;;;;;;19.70;12.87;;;;;;;;;;5029259;28;20288;-78
2023/05/21 06:39:36;;;;;;;20.67;12.40;;;;;;;;;;5021138;28;20261;-79
2023/05/21 06:42:03;;;;;;;17.73;12.93;;;;;;;;;;5013919;28;20236;-79
2023/05/21 06:44:30;;;;;;;18.83;13.77;;;;;;;;;;5013829;28;20208;-78
2023/05/21 06:46:58;;;;;;;22.77;13.90;;;;;;;;;;5013358;28;20217;-79
2023/05/21 06:49:26;;;;;;;19.20;14.90;;;;;;;;;;5013571;28;20228;-79
2023/05/21 06:51:53;;;;;;;21.43;14.37;;;;;;;;;;5013777;28;20211;-79
2023/05/21 06:54:20;;;;;;;19.40;14.07;;;;;;;;;;5013272;28;20236;-79
2023/05/21 06:56:48;;;;;;;21.40;14.60;;;;;;;;;;5013224;28;20228;-79
2023/05/21 06:59:15;;;;;;;25.97;15.17;;;;;;;;;;5012989;28;20239;-78
2023/05/21 07:01:42;;;;;;;18.73;14.37;;;;;;;;;;5013841;28;20208;-79
2023/05/21 07:04:09;;;;;;;20.60;13.63;;;;;;;;;;5013505;28;20197;-79
2023/05/21 07:06:38;;;;;;;18.63;14.03;;;;;;;;;;5013471;28;20284;-76
2023/05/21 07:09:06;;;;;;;19.15;13.88;;;;;;;;;;5013154;28;20280;-78
2023/05/21 07:11:33;;;;;;;19.55;13.57;;;;;;;;;;5028603;28;20578;-79
2023/05/21 07:14:00;;;;;;;18.05;13.52;;;;;;;;;;5034163;28;20199;-80
2023/05/21 07:16:28;;;;;;;17.42;12.48;;;;;;;;;;5052647;28;20744;-79
2023/05/21 07:18:55;;;;;;;19.17;13.18;;;;;;;;;;5052791;28;20322;-80
2023/05/21 07:21:22;;;;;;;18.38;13.02;;;;;;;;;;5052849;28;20199;-78
2023/05/21 07:23:51;;;;;;;17.55;12.52;;;;;;;;;;5023351;28;20296;-79
2023/05/21 07:26:18;;;;;;;16.13;12.65;;;;;;;;;;5012734;28;20243;-79
2023/05/21 07:28:45;;;;;;;17.05;13.32;;;;;;;;;;5029837;28;20200;-79
2023/05/21 07:31:12;;;;;;;18.70;14.25;;;;;;;;;;5024641;28;20551;-79
2023/05/21 07:33:39;;;;;;;17.13;13.68;;;;;;;;;;5012607;28;20312;-78
2023/05/21 07:36:07;;;;;;;19.13;13.45;;;;;;;;;;5012569;28;20244;-79
2023/05/21 07:38:34;;;;;;;16.83;12.68;;;;;;;;;;5012319;28;20316;-79
2023/05/21 07:41:02;;;;;;;16.15;12.00;;;;;;;;;;5026584;28;20201;-78
2023/05/21 07:43:30;;;;;;;18.73;12.65;;;;;;;;;;5032490;28;20296;-78
2023/05/21 07:45:57;;;;;;;16.35;11.98;;;;;;;;;;5031573;28;20287;-79
2023/05/21 07:48:25;;;;;;;15.35;11.35;;;;;;;;;;5031147;28;20673;-79
2023/05/21 07:50:52;;;;;;;16.58;12.93;;;;;;;;;;5032096;28;20209;-79
2023/05/21 07:53:20;;;;;;;15.27;11.65;;;;;;;;;;5031756;28;20192;-79
2023/05/21 07:55:47;;;;;;;16.98;12.88;;;;;;;;;;5032444;28;20258;-79
2023/05/21 07:58:17;;;;;;;15.43;11.57;;;;;;;;;;5031398;28;20217;-80
2023/05/21 08:00:45;;;;;;;19.27;11.68;;;;;;;;;;5032042;28;20688;-80
2023/05/21 08:03:13;;;;;;;15.68;12.07;;;;;;;;;;5032207;28;20192;-79
2023/05/21 08:05:40;;;;;;;14.70;12.05;;;;;;;;;;5031462;28;20232;-79
2023/05/21 08:08:07;;;;;;;17.23;13.15;;;;;;;;;;5032134;28;20208;-79
2023/05/21 08:10:35;;;;;;;18.00;12.63;;;;;;;;;;5031083;28;20315;-79
2023/05/21 08:13:03;;;;;;;18.52;12.63;;;;;;;;;;5021993;28;20670;-79
2023/05/21 08:15:31;;;;;;;16.52;13.02;;;;;;;;;;5045018;28;20971;-80
2023/05/21 08:17:58;;;;;;;16.23;12.68;;;;;;;;;;5052088;28;20196;-80
2023/05/21 08:20:26;;;;;;;15.73;12.18;;;;;;;;;;5051564;28;20290;-80
2023/05/21 08:22:53;;;;;;;14.80;11.95;;;;;;;;;;5051376;28;20691;-79
2023/05/21 08:25:20;;;;;;;16.65;12.55;;;;;;;;;;5034461;28;20361;-80
2023/05/21 08:27:48;;;;;;;15.48;11.65;;;;;;;;;;5031498;28;20232;-80
2023/05/21 08:30:15;;;;;;;18.70;13.13;;;;;;;;;;5030599;28;20805;-79
2023/05/21 08:32:44;;;;;;;17.80;13.60;;;;;;;;;;5025277;28;20234;-79
2023/05/21 08:35:11;;;;;;;18.13;14.57;;;;;;;;;;5026455;28;20641;-79
2023/05/21 08:37:38;;;;;;;18.40;14.82;;;;;;;;;;5026966;28;20204;-79
2023/05/21 08:40:06;;;;;;;16.85;13.15;;;;;;;;;;5019510;28;20327;-80
2023/05/21 08:42:37;;;;;;;17.88;13.45;;;;;;;;;;5028749;28;20196;-80
2023/05/21 08:45:05;;;;;;;15.90;12.80;;;;;;;;;;5021151;28;20295;-80
2023/05/21 08:47:35;;;;;;;16.95;13.25;;;;;;;;;;5030545;28;20299;-79
2023/05/21 08:50:05;;;;;;;15.73;12.93;;;;;;;;;;5021522;28;20224;-80
2023/05/21 08:52:32;;;;;;;16.27;12.13;;;;;;;;;;5029924;28;20239;-79
2023/05/21 08:55:00;;;;;;;13.70;12.23;;;;;;;;;;5025228;28;20733;-79
2023/05/21 08:57:28;;;;;;;13.77;12.02;;;;;;;;;;5019572;28;20201;-80
2023/05/21 08:59:55;;;;;;;15.23;11.45;;;;;;;;;;5029513;28;20220;-78
2023/05/21 09:02:23;;;;;;;16.77;12.85;;;;;;;;;;5029160;28;20656;-79
2023/05/21 09:04:55;;;;;;;15.43;11.18;;;;;;;;;;5030348;28;20204;-79
2023/05/21 09:07:26;;;;;;;15.30;11.45;;;;;;;;;;5027213;28;20208;-79
2023/05/21 09:09:55;;;;;;;13.15;11.55;;;;;;;;;;5027745;28;20295;-80
2023/05/21 09:12:22;;;;;;;13.88;12.27;;;;;;;;;;5024875;28;20654;-80
2023/05/21 09:14:50;;;;;;;13.30;10.73;;;;;;;;;;5034272;28;20311;-80
2023/05/21 09:17:19;;;;;;;11.10;9.82;;;;;;;;;;5034265;28;20228;-79
2023/05/21 09:20:07;;;;;;;12.95;11.52;;;;;;;;;;5034268;28;20228;-79
2023/05/21 09:22:35;;;;;;;12.23;10.95;;;;;;;;;;5029672;28;20905;-79
2023/05/21 09:25:05;;;;;;;11.82;10.63;;;;;;;;;;5034151;28;20214;-79
2023/05/21 09:27:33;;;;;;;12.80;10.68;;;;;;;;;;5034745;28;20287;-79
2023/05/21 09:30:00;;;;;;;12.88;11.27;;;;;;;;;;5034842;28;20207;-79
2023/05/21 09:32:27;;;;;;;12.52;11.23;;;;;;;;;;5033414;28;20236;-79
2023/05/21 09:34:54;;;;;;;12.20;11.10;;;;;;;;;;4677196;28;10000229;-78
2023/05/21 09:37:22;;;;;;;15.20;11.18;;;;;;;;;;5027009;28;20474;-79
2023/05/21 09:39:50;;;;;;;12.70;10.20;;;;;;;;;;5028113;28;20710;-79
2023/05/21 09:42:21;;;;;;;12.80;10.45;;;;;;;;;;5031152;28;20220;-80
2023/05/21 09:44:48;;;;;;;14.15;10.88;;;;;;;;;;5029235;28;20235;-79
2023/05/21 09:47:21;;;;;;;10.98;9.77;;;;;;;;;;5028795;28;20208;-79
2023/05/21 09:49:49;;;;;;;11.43;10.23;;;;;;;;;;5030991;28;20200;-79
2023/05/21 09:52:24;;;;;;;12.02;10.52;;;;;;;;;;5025394;28;20210;-78
2023/05/21 09:54:53;;;;;;;12.05;10.00;;;;;;;;;;5027660;28;20614;-79
2023/05/21 09:57:24;;;;;;;11.90;10.45;;;;;;;;;;5029529;28;20196;-79
2023/05/21 09:59:51;;;;;;;11.65;10.50;;;;;;;;;;5034157;28;20252;-79
2023/05/21 10:02:18;;;;;;;13.38;9.95;;;;;;;;;;5034242;28;20771;-79
2023/05/21 10:04:48;;;;;;;10.93;9.52;;;;;;;;;;5034131;28;20234;-79
2023/05/21 10:07:16;;;;;;;11.68;9.23;;;;;;;;;;5034189;28;20279;-80
2023/05/21 10:09:44;;;;;;;15.13;10.50;;;;;;;;;;5034263;28;20746;-78
2023/05/21 10:12:13;;;;;;;15.80;12.35;;;;;;;;;;5034215;28;20664;-79
2023/05/21 10:14:41;;;;;;;14.35;11.98;;;;;;;;;;5044278;28;20291;-80
2023/05/21 10:17:09;;;;;;;12.75;10.05;;;;;;;;;;5053573;28;20759;-79
2023/05/21 10:19:36;;;;;;;11.43;9.23;;;;;;;;;;5053775;28;20259;-79
2023/05/21 10:22:04;;;;;;;10.88;9.25;;;;;;;;;;5053453;28;20234;-79
2023/05/21 10:24:32;;;;;;;11.57;9.20;;;;;;;;;;5054061;28;20226;-79
2023/05/21 10:27:00;;;;;;;12.32;9.50;;;;;;;;;;5054130;28;20279;-78
2023/05/21 10:29:29;;;;;;;12.77;9.43;;;;;;;;;;5053729;28;20200;-78
2023/05/21 10:31:56;;;;;;;12.52;9.35;;;;;;;;;;5053375;28;20192;-80
2023/05/21 10:34:24;;;;;;;11.05;9.13;;;;;;;;;;5053776;28;20328;-79
2023/05/21 10:36:51;;;;;;;11.00;8.77;;;;;;;;;;5053826;28;20691;-79
2023/05/21 10:39:22;;;;;;;12.75;7.82;;;;;;;;;;5051457;28;20220;-79
2023/05/21 10:41:52;;;;;;;9.48;7.78;;;;;;;;;;5032369;28;20689;-78
2023/05/21 10:44:22;;;;;;;10.23;8.00;;;;;;;;;;5043622;28;20994;-79
2023/05/21 10:47:10;;;;;;;9.75;8.00;;;;;;;;;;5026554;28;20193;-79
2023/05/21 10:49:54;;;;;;;12.13;7.13;;;;;;;;;;5027980;28;20295;-79
2023/05/21 10:52:32;;;;;;;11.32;9.00;;;;;;;;;;5030404;28;20314;-78
2023/05/21 10:55:08;;;;;;;11.90;8.68;;;;;;;;;;5043870;28;20204;-78
2023/05/21 10:57:47;;;;;;;9.50;7.22;;;;;;;;;;5047229;28;20223;-77
2023/05/21 11:00:16;;;;;;;10.20;8.60;;;;;;;;;;5035717;28;20307;-78
2023/05/21 11:02:44;;;;;;;11.63;9.90;;;;;;;;;;5045361;28;20251;-78
2023/05/21 11:05:12;;;;;;;10.10;8.00;;;;;;;;;;5043961;28;20668;-78
2023/05/21 11:07:55;;;;;;;9.80;7.80;;;;;;;;;;5037952;28;20193;-78
2023/05/21 11:10:30;;;;;;;10.88;9.00;;;;;;;;;;5021701;28;20204;-79
2023/05/21 11:13:11;;;;;;;12.27;7.55;;;;;;;;;;5043609;28;20196;-79
2023/05/21 11:15:53;;;;;;;12.32;8.40;;;;;;;;;;5050348;28;20653;-77
2023/05/21 11:18:20;;;;;;;12.13;7.93;;;;;;;;;;5021331;28;20242;-78
2023/05/21 11:20:52;;;;;;;10.65;8.23;;;;;;;;;;5044295;28;20724;-77
2023/05/21 11:23:21;;;;;;;12.20;8.52;;;;;;;;;;5044557;28;20206;-79
2023/05/21 11:25:52;;;;;;;11.35;8.88;;;;;;;;;;5036726;28;20231;-78
2023/05/21 11:28:33;;;;;;;9.70;7.88;;;;;;;;;;5018601;28;20592;-78
2023/05/21 11:31:18;;;;;;;10.10;8.10;;;;;;;;;;5029495;28;20288;-78
2023/05/21 11:33:48;;;;;;;11.80;8.60;;;;;;;;;;5027367;28;20319;-78
2023/05/21 11:36:16;;;;;;;12.48;8.45;;;;;;;;;;5028720;28;20644;-78
2023/05/21 11:38:43;;;;;;;10.68;7.78;;;;;;;;;;5039466;28;20283;-78
2023/05/21 11:41:10;;;;;;;10.00;8.55;;;;;;;;;;5035714;28;20318;-78
2023/05/21 11:43:40;;;;;;;9.13;7.78;;;;;;;;;;5045023;28;20299;-78
2023/05/21 11:46:08;;;;;;;9.20;8.00;;;;;;;;;;5026143;28;20287;-78
2023/05/21 11:48:35;;;;;;;12.35;8.55;;;;;;;;;;5024305;28;20283;-78
2023/05/21 11:51:02;;;;;;;10.23;9.05;;;;;;;;;;5026802;28;20280;-78
2023/05/21 11:53:31;;;;;;;12.23;8.90;;;;;;;;;;5025418;28;20287;-78
2023/05/21 11:55:59;;;;;;;11.38;8.18;;;;;;;;;;5032003;28;20189;-78
2023/05/21 11:58:27;;;;;;;10.73;8.00;;;;;;;;;;5020831;28;20289;-79
2023/05/21 12:00:54;;;;;;;8.80;7.50;;;;;;;;;;5021259;28;20227;-79
2023/05/21 12:03:25;;;;;;;10.80;8.20;;;;;;;;;;5022569;28;20192;-78
2023/05/21 12:05:53;;;;;;;9.90;8.02;;;;;;;;;;5022196;28;20203;-78
2023/05/21 12:08:24;;;;;;;10.18;8.45;;;;;;;;;;5020772;28;20232;-78
2023/05/21 12:10:55;;;;;;;11.63;8.20;;;;;;;;;;5021518;28;20200;-78
2023/05/21 12:13:22;;;;;;;10.20;8.40;;;;;;;;;;5022418;28;20200;-79
2023/05/21 12:15:49;;;;;;;10.80;8.30;;;;;;;;;;5027967;28;20287;-78
2023/05/21 12:18:16;;;;;;;9.93;8.63;;;;;;;;;;5035903;28;20227;-78
2023/05/21 12:20:43;;;;;;;9.80;8.45;;;;;;;;;;5031924;28;20223;-78
2023/05/21 12:23:19;;;;;;;11.02;8.52;;;;;;;;;;5024601;28;20253;-79
2023/05/21 12:25:47;;;;;;;10.75;8.63;;;;;;;;;;5032377;28;20192;-79
2023/05/21 12:28:16;;;;;;;12.98;8.52;;;;;;;;;;5047420;28;20220;-78
2023/05/21 12:30:43;;;;;;;8.90;7.85;;;;;;;;;;5037862;28;20283;-78
2023/05/21 12:33:10;;;;;;;11.60;8.32;;;;;;;;;;5036529;28;20315;-78
2023/05/21 12:35:38;;;;;;;10.02;8.65;;;;;;;;;;5046100;28;20275;-78
2023/05/21 12:38:05;;;;;;;9.98;8.93;;;;;;;;;;5028225;28;20284;-79
2023/05/21 12:40:36;;;;;;;11.27;8.40;;;;;;;;;;5024089;28;20731;-78
2023/05/21 12:43:03;;;;;;;9.35;8.02;;;;;;;;;;5045500;28;20291;-78
2023/05/21 12:45:33;;;;;;;11.00;8.77;;;;;;;;;;5037204;28;20294;-78
2023/05/21 12:48:01;;;;;;;10.02;7.75;;;;;;;;;;5041063;28;20196;-78
2023/05/21 12:50:29;;;;;;;14.57;8.65;;;;;;;;;;5044703;28;20756;-77
2023/05/21 12:52:56;;;;;;;10.82;8.68;;;;;;;;;;5034571;28;20278;-78
2023/05/21 12:55:24;;;;;;;11.63;9.02;;;;;;;;;;5046114;28;20264;-79
2023/05/21 12:58:00;;;;;;;12.55;9.68;;;;;;;;;;5039879;28;20211;-78
2023/05/21 13:00:27;;;;;;;13.30;9.25;;;;;;;;;;5037277;28;20319;-78
2023/05/21 13:02:58;;;;;;;16.23;9.30;;;;;;;;;;5027305;28;20292;-78
2023/05/21 13:05:25;;;;;;;13.02;10.57;;;;;;;;;;5027658;28;20665;-79
2023/05/21 13:07:53;;;;;;;12.52;9.43;;;;;;;;;;5026321;28;20293;-78
2023/05/21 13:10:20;;;;;;;11.50;9.43;;;;;;;;;;5026161;28;20228;-77
2023/05/21 13:12:47;;;;;;;11.15;9.23;;;;;;;;;;5021766;28;20220;-78
2023/05/21 13:15:14;;;;;;;11.55;8.23;;;;;;;;;;5022063;28;20279;-78
2023/05/21 13:17:42;;;;;;;9.50;7.97;;;;;;;;;;5020934;28;20571;-78
2023/05/21 13:20:11;;;;;;;10.98;8.38;;;;;;;;;;5019861;28;20220;-79
2023/05/21 13:22:41;;;;;;;11.45;8.73;;;;;;;;;;5020114;28;20197;-78
2023/05/21 13:25:08;;;;;;;9.25;8.10;;;;;;;;;;5019493;28;20278;-78
2023/05/21 13:27:36;;;;;;;14.98;9.55;;;;;;;;;;5019675;28;20740;-78
2023/05/21 13:30:03;;;;;;;11.18;9.32;;;;;;;;;;5020585;28;20279;-78
2023/05/21 13:32:30;;;;;;;11.65;9.52;;;;;;;;;;5011479;28;20225;-78
2023/05/21 13:34:57;;;;;;;11.45;9.18;;;;;;;;;;5011244;28;20247;-78
2023/05/21 13:37:26;;;;;;;12.35;9.57;;;;;;;;;;5011391;28;20204;-78
2023/05/21 13:39:53;;;;;;;11.63;9.23;;;;;;;;;;5010882;28;20224;-78
2023/05/21 13:42:20;;;;;;;12.90;9.10;;;;;;;;;;5011163;28;20193;-78
2023/05/21 13:44:48;;;;;;;12.68;9.20;;;;;;;;;;5011499;28;20197;-78
2023/05/21 13:47:15;;;;;;;12.60;8.18;;;;;;;;;;5011235;28;20549;-78
2023/05/21 13:49:43;;;;;;;10.90;8.55;;;;;;;;;;5010763;28;20197;-78
2023/05/21 13:52:10;;;;;;;13.60;8.23;;;;;;;;;;5011217;28;20315;-78
2023/05/21 13:54:38;;;;;;;9.55;7.22;;;;;;;;;;5010878;28;20201;-76
2023/05/21 13:57:06;;;;;;;9.95;7.60;;;;;;;;;;5014638;28;20248;-78
2023/05/21 13:59:33;;;;;;;11.80;8.20;;;;;;;;;;5014434;28;20235;-79
2023/05/21 14:02:00;;;;;;;10.73;8.75;;;;;;;;;;5014341;28;20232;-78
2023/05/21 14:04:27;;;;;;;11.95;8.48;;;;;;;;;;5014707;28;20233;-78
2023/05/21 14:06:55;;;;;;;9.23;8.18;;;;;;;;;;5015119;28;20708;-79
2023/05/21 14:09:25;;;;;;;10.70;7.95;;;;;;;;;;5014185;28;20205;-78
2023/05/21 14:11:54;;;;;;;10.10;8.65;;;;;;;;;;5014453;28;20200;-78
2023/05/21 14:14:22;;;;;;;9.38;7.88;;;;;;;;;;5029023;28;20569;-79
2023/05/21 14:16:49;;;;;;;12.13;7.63;;;;;;;;;;5054650;28;20200;-78
2023/05/21 14:19:16;;;;;;;9.43;8.15;;;;;;;;;;5054008;28;20200;-77
2023/05/21 14:21:44;;;;;;;12.60;8.27;;;;;;;;;;5054061;28;20238;-78
2023/05/21 14:24:11;;;;;;;9.90;6.53;;;;;;;;;;5053463;28;20303;-78
2023/05/21 14:26:40;;;;;;;11.27;7.35;;;;;;;;;;5053916;28;20287;-78
2023/05/21 14:29:09;;;;;;;9.75;7.93;;;;;;;;;;5053950;28;20228;-78
2023/05/21 14:31:36;;;;;;;9.93;7.35;;;;;;;;;;5053852;28;20290;-79